Terminal Aerodrome Forecast
Issued by NWS Cleveland, OH

Home | Current Version | Previous Version | Graphics & Text | Print | Product List | Glossary On
Versions: 1 2 3 4 5 6 7 8 9 10 11 12 13 14 15 16 17 18 19 20 21 22 23 24
479
FTUS41 KCLE 251455 AAA
TAFCLE
TAF AMD
KCLE 251455Z 2515/2618 08007KT P6SM SKC
     FM260500 12005KT P6SM OVC250
     FM261000 16010KT P6SM BKN040
     FM261500 19010KT P6SM -SHRA OVC025=

USA.gov is the U.S. government's official web portal to all federal, state and local government web resources and services.